Time;durP1;ratioP1;P1;durP2;ratioP2;P2;SDS_P1;SDS_P2;PMS_P1;PMS_P2;Temp;Humidity;BMP_temperature;BMP_pressure;BME280_temperature;BME280_humidity;BME280_pressure;Samples;Min_cycle;Max_cycle;Signal;HPM_P1;HPM_P2
2022/08/07 00:01:36;;;;;;;3.65;2.05;;;;;;;16.56;81.31;101553.34;1747943;80;25770;-80
2022/08/07 00:04:05;;;;;;;4.42;2.17;;;;;;;16.53;81.27;101548.86;1750799;81;26228;-81
2022/08/07 00:06:32;;;;;;;3.12;1.95;;;;;;;16.49;81.23;101553.78;1752309;81;27463;-80
2022/08/07 00:08:58;;;;;;;4.17;1.75;;;;;;;16.45;81.20;101557.09;1719196;82;25958;-83
2022/08/07 00:11:25;;;;;;;5.92;1.90;;;;;;;16.40;81.25;101551.47;1718175;81;25883;-79
2022/08/07 00:13:51;;;;;;;5.80;2.20;;;;;;;16.37;81.22;101555.92;1729364;81;25828;-80
2022/08/07 00:16:17;;;;;;;3.55;1.70;;;;;;;16.31;81.17;101556.73;1718392;81;25293;-80
2022/08/07 00:18:44;;;;;;;4.67;1.90;;;;;;;16.25;81.12;101554.33;1715693;82;27438;-81
2022/08/07 00:21:10;;;;;;;7.87;2.52;;;;;;;16.18;81.08;101556.99;1731283;81;26569;-80
2022/08/07 00:23:39;;;;;;;2.27;2.08;;;;;;;16.15;80.99;101568.70;1739763;81;25807;-80
2022/08/07 00:26:08;;;;;;;6.10;1.87;;;;;;;16.09;80.95;101566.80;1737884;81;26355;-79
2022/08/07 00:28:35;;;;;;;4.75;1.90;;;;;;;16.06;80.84;101560.42;1719718;82;25904;-79
2022/08/07 00:31:06;;;;;;;4.40;2.08;;;;;;;15.98;80.84;101562.79;1718473;81;27609;-79
2022/08/07 00:33:37;;;;;;;3.45;1.80;;;;;;;15.92;80.92;101562.75;1720970;81;25555;-79
2022/08/07 00:36:05;;;;;;;1.77;1.55;;;;;;;15.89;80.96;101571.23;1750778;80;25840;-79
2022/08/07 00:38:35;;;;;;;6.20;1.95;;;;;;;15.85;80.83;101564.56;1739528;81;26748;-83
2022/08/07 00:41:02;;;;;;;2.85;1.70;;;;;;;15.79;80.78;101568.05;1726639;81;25853;-79
2022/08/07 00:43:28;;;;;;;4.55;1.87;;;;;;;15.74;80.87;101567.83;1738882;81;27424;-80
2022/08/07 00:45:55;;;;;;;8.28;2.15;;;;;;;15.70;80.93;101568.72;1744176;80;25822;-79
2022/08/07 00:48:21;;;;;;;3.20;1.95;;;;;;;15.65;80.81;101564.95;1735162;80;26519;-79
2022/08/07 00:50:47;;;;;;;2.85;1.50;;;;;;;15.61;80.80;101571.78;1732042;81;26222;-79
2022/08/07 00:53:14;;;;;;;9.35;2.05;;;;;;;15.57;80.84;101575.91;1730844;81;25833;-79
2022/08/07 00:55:40;;;;;;;4.25;1.70;;;;;;;15.55;80.94;101573.89;1731170;81;28258;-79
2022/08/07 00:58:07;;;;;;;5.25;1.70;;;;;;;15.50;80.67;101575.85;1736443;81;25921;-80
2022/08/07 01:00:33;;;;;;;3.90;1.70;;;;;;;15.46;80.82;101576.43;1745180;81;25861;-80
2022/08/07 01:03:00;;;;;;;5.35;1.75;;;;;;;15.41;80.83;101578.33;1726891;81;26579;-79
2022/08/07 01:05:27;;;;;;;5.92;1.77;;;;;;;15.34;80.91;101580.13;1730701;80;26137;-80
2022/08/07 01:07:54;;;;;;;3.65;1.60;;;;;;;15.30;80.91;101584.25;1727366;81;27565;-80
2022/08/07 01:10:20;;;;;;;3.77;1.80;;;;;;;15.25;80.93;101579.42;1743545;81;25822;-79
2022/08/07 01:12:47;;;;;;;4.65;2.02;;;;;;;15.21;81.06;101581.34;1725385;82;26568;-79
2022/08/07 01:15:14;;;;;;;4.62;1.80;;;;;;;15.17;80.88;101584.11;1727891;81;26580;-80
2022/08/07 01:17:41;;;;;;;3.40;1.22;;;;;;;15.11;80.94;101580.33;1733505;81;25784;-79
2022/08/07 01:20:11;;;;;;;5.87;1.50;;;;;;;15.08;80.94;101579.36;1717834;81;27444;-81
2022/08/07 01:22:38;;;;;;;;;;;;;;;15.05;81.01;101577.56;1713921;82;25529;-80
2022/08/07 01:25:07;;;;;;;2.30;1.50;;;;;;;15.00;81.02;101573.25;1715739;81;25821;-81
2022/08/07 01:27:34;;;;;;;2.77;1.95;;;;;;;14.94;81.11;101572.16;1715241;81;26576;-80
2022/08/07 01:30:03;;;;;;;4.47;2.00;;;;;;;14.92;81.07;101574.22;1741410;81;25973;-79
2022/08/07 01:32:30;;;;;;;6.67;1.62;;;;;;;14.89;80.98;101575.09;1733518;81;26909;-79
2022/08/07 01:35:00;;;;;;;1.85;1.27;;;;;;;14.83;80.82;101575.36;1722472;82;26477;-80
2022/08/07 01:37:26;;;;;;;6.15;1.70;;;;;;;14.79;80.95;101577.27;1738872;81;25782;-80
2022/08/07 01:39:57;;;;;;;5.33;1.60;;;;;;;14.76;81.09;101577.14;1710570;81;25738;-79
2022/08/07 01:42:25;;;;;;;3.72;1.47;;;;;;;14.74;81.14;101570.25;1750399;80;25790;-79
2022/08/07 01:44:53;;;;;;;3.42;1.70;;;;;;;14.72;81.07;101577.20;1730269;81;27424;-80
2022/08/07 01:47:20;;;;;;;4.28;1.77;;;;;;;14.67;80.99;101571.52;1730603;81;25947;-79
2022/08/07 01:49:46;;;;;;;3.30;1.37;;;;;;;14.65;80.99;101574.92;1725934;80;25808;-80
2022/08/07 01:52:13;;;;;;;2.45;1.40;;;;;;;14.61;80.83;101579.88;1737640;80;26783;-79
2022/08/07 01:54:41;;;;;;;1.80;1.40;;;;;;;14.56;80.62;101577.44;1707204;81;26539;-80
2022/08/07 01:57:22;;;;;;;4.72;1.50;;;;;;;14.51;80.64;101575.30;1713666;81;27656;-80
2022/08/07 01:59:56;;;;;;;2.05;1.20;;;;;;;14.45;80.67;101571.17;1719096;81;25779;-79
2022/08/07 02:02:31;;;;;;;2.35;1.20;;;;;;;14.40;80.78;101570.38;1723691;81;25828;-79
2022/08/07 02:05:03;;;;;;;4.15;1.57;;;;;;;14.39;80.84;101571.93;1724468;81;25925;-81
2022/08/07 02:07:37;;;;;;;6.62;2.42;;;;;;;14.34;80.58;101568.45;1734925;81;25764;-79
2022/08/07 02:10:05;;;;;;;10.13;1.87;;;;;;;14.31;80.94;101566.11;1720174;81;28803;-79
2022/08/07 02:12:37;;;;;;;1.52;1.40;;;;;;;14.27;81.04;101565.29;1721428;81;25349;-79
2022/08/07 02:15:08;;;;;;;5.50;1.02;;;;;;;14.22;81.18;101569.89;1742314;80;25734;-79
2022/08/07 02:17:39;;;;;;;3.52;1.22;;;;;;;14.18;81.21;101562.39;1731128;80;27401;-79
2022/08/07 02:20:08;;;;;;;6.37;1.10;;;;;;;14.12;81.04;101560.42;1736896;80;26484;-79
2022/08/07 02:22:37;;;;;;;1.73;1.20;;;;;;;14.05;80.91;101561.67;1730749;81;27481;-79
2022/08/07 02:25:07;;;;;;;3.05;1.32;;;;;;;13.99;80.82;101558.88;1721514;81;25958;-80
2022/08/07 02:27:36;;;;;;;2.35;1.17;;;;;;;13.92;80.92;101558.81;1720398;81;26039;-79
2022/08/07 02:30:05;;;;;;;4.22;1.40;;;;;;;13.86;80.85;101557.68;1722998;82;26475;-79
2022/08/07 02:32:36;;;;;;;3.62;1.32;;;;;;;13.82;80.96;101554.20;1710987;81;25988;-78
2022/08/07 02:35:06;;;;;;;2.60;1.15;;;;;;;13.78;81.08;101558.28;1733485;80;27444;-80
2022/08/07 02:37:36;;;;;;;1.92;1.32;;;;;;;13.74;81.03;101556.48;1733379;81;25924;-80
2022/08/07 02:40:07;;;;;;;4.50;1.47;;;;;;;13.71;81.03;101557.33;1733439;81;25817;-79
2022/08/07 02:42:36;;;;;;;6.58;1.60;;;;;;;13.69;81.15;101567.45;1717746;82;26131;-80
2022/08/07 02:45:07;;;;;;;10.48;1.57;;;;;;;13.64;81.43;101563.15;1737748;81;26208;-78
2022/08/07 02:47:33;;;;;;;3.10;1.47;;;;;;;13.61;81.32;101563.00;1735003;81;27447;-80
2022/08/07 02:50:06;;;;;;;1.70;0.90;;;;;;;13.56;81.05;101561.85;1733419;81;25746;-79
2022/08/07 02:52:46;;;;;;;0.85;0.85;;;;;;;13.50;80.99;101558.55;1727678;81;25634;-80
2022/08/07 02:55:23;;;;;;;3.02;1.20;;;;;;;13.47;81.02;101564.31;1733360;81;26815;-79
2022/08/07 02:57:53;;;;;;;4.47;0.90;;;;;;;13.44;81.24;101574.93;1743482;80;25862;-79
2022/08/07 03:00:22;;;;;;;4.35;0.90;;;;;;;13.38;81.28;101577.01;1758748;81;28103;-79
2022/08/07 03:02:51;;;;;;;2.27;1.10;;;;;;;13.32;81.26;101575.05;1762324;80;25391;-79
2022/08/07 03:05:19;;;;;;;1.50;1.00;;;;;;;13.28;81.29;101575.05;1728796;82;25751;-79
2022/08/07 03:07:48;;;;;;;4.65;1.20;;;;;;;13.24;81.24;101581.81;1710182;81;26601;-78
2022/08/07 03:10:16;;;;;;;2.75;1.00;;;;;;;13.21;81.22;101578.66;1744211;80;25748;-80
2022/08/07 03:12:45;;;;;;;8.33;1.22;;;;;;;13.19;81.25;101578.00;1729951;81;27528;-79
2022/08/07 03:15:13;;;;;;;1.57;1.20;;;;;;;13.16;81.14;101581.89;1743262;81;26172;-79
2022/08/07 03:17:41;;;;;;;5.70;1.20;;;;;;;13.14;81.21;101574.00;1735445;81;25821;-79
2022/08/07 03:20:10;;;;;;;3.33;1.10;;;;;;;13.14;81.33;101578.04;1737125;81;25848;-80
2022/08/07 03:22:41;;;;;;;4.03;1.12;;;;;;;13.14;81.27;101582.08;1733050;81;25932;-79
2022/08/07 03:25:08;;;;;;;1.90;0.93;;;;;;;13.12;81.21;101582.77;1737402;80;33758;-79
2022/08/07 03:27:38;;;;;;;3.25;1.05;;;;;;;13.11;81.14;101586.95;1739268;81;25885;-79
2022/08/07 03:30:05;;;;;;;5.33;1.12;;;;;;;13.08;81.27;101587.33;1744764;80;26440;-79
2022/08/07 03:32:39;;;;;;;1.17;1.07;;;;;;;13.04;81.20;101590.02;1749143;80;26588;-79
2022/08/07 03:35:16;;;;;;;1.98;1.42;;;;;;;13.02;81.05;101588.83;1755238;80;25846;-78
2022/08/07 03:38:00;;;;;;;4.17;1.70;;;;;;;12.98;81.08;101587.52;1716110;81;26779;-79
2022/08/07 03:40:29;;;;;;;3.20;1.30;;;;;;;12.96;81.33;101588.70;1732262;81;25890;-77
2022/08/07 03:42:59;;;;;;;2.17;1.57;;;;;;;12.94;81.44;101584.02;1733174;80;25858;-78
2022/08/07 03:45:27;;;;;;;1.52;1.12;;;;;;;12.90;81.57;101587.58;1735740;80;26538;-79
2022/08/07 03:47:56;;;;;;;3.65;1.15;;;;;;;12.88;81.58;101584.23;1735426;80;26525;-79
2022/08/07 03:50:24;;;;;;;2.55;1.02;;;;;;;12.88;81.60;101588.27;1736774;80;27546;-80
2022/08/07 03:52:58;;;;;;;8.48;1.47;;;;;;;12.86;81.66;101592.14;1751890;80;25879;-79
2022/08/07 03:55:25;;;;;;;1.50;1.10;;;;;;;12.86;81.75;101597.52;1732700;81;25908;-79
2022/08/07 03:57:52;;;;;;;2.65;1.00;;;;;;;12.84;81.69;101600.39;1733572;81;25812;-80
2022/08/07 04:00:19;;;;;;;2.70;0.95;;;;;;;12.81;81.85;101596.70;1727847;81;26485;-81
2022/08/07 04:02:47;;;;;;;2.05;0.78;;;;;;;12.80;81.71;101600.42;1731953;81;27489;-78
2022/08/07 04:05:21;;;;;;;1.27;0.80;;;;;;;12.81;81.64;101603.42;1734993;81;25934;-79
2022/08/07 04:07:50;;;;;;;1.57;1.12;;;;;;;12.81;81.95;101598.58;1723192;81;25806;-78
2022/08/07 04:10:19;;;;;;;1.40;1.30;;;;;;;12.84;82.37;101600.89;1744752;80;25940;-77
2022/08/07 04:12:47;;;;;;;3.92;1.15;;;;;;;12.86;82.67;101598.36;1730091;80;25823;-78
2022/08/07 04:15:16;;;;;;;1.05;1.02;;;;;;;12.88;82.84;101600.87;1732207;81;27479;-78
2022/08/07 04:17:44;;;;;;;2.62;1.52;;;;;;;12.90;83.05;101607.75;1724778;80;26550;-79
2022/08/07 04:20:11;;;;;;;2.45;1.25;;;;;;;12.89;82.96;101599.37;1731187;81;25255;-79
2022/08/07 04:22:40;;;;;;;4.67;1.40;;;;;;;12.93;83.33;101610.59;1722144;81;26585;-79
2022/08/07 04:25:08;;;;;;;3.10;1.50;;;;;;;12.96;83.59;101620.48;1721554;81;25950;-79
2022/08/07 04:27:35;;;;;;;1.62;1.50;;;;;;;13.00;83.79;101615.07;1722418;82;28282;-79
2022/08/07 04:30:03;;;;;;;5.75;1.85;;;;;;;13.04;84.14;101616.42;1749795;81;25793;-79
2022/08/07 04:32:35;;;;;;;5.00;1.98;;;;;;;13.05;84.58;101614.08;1720922;82;25943;-78
2022/08/07 04:35:05;;;;;;;3.75;1.80;;;;;;;13.07;84.97;101616.58;1723476;82;26612;-81
2022/08/07 04:37:33;;;;;;;2.65;1.98;;;;;;;13.11;85.48;101612.01;1717939;81;25959;-80
2022/08/07 04:40:01;;;;;;;2.58;1.90;;;;;;;13.15;85.71;101618.70;1720517;82;26885;-78
2022/08/07 04:42:30;;;;;;;5.75;2.20;;;;;;;13.23;85.90;101614.30;1720563;81;25917;-79
2022/08/07 04:45:00;;;;;;;2.15;1.90;;;;;;;13.28;86.40;101621.33;1700323;82;25756;-78
2022/08/07 04:47:56;;;;;;;4.03;2.10;;;;;;;13.34;86.61;101626.83;1728846;81;25847;-80
2022/08/07 04:50:46;;;;;;;2.77;2.15;;;;;;;13.40;86.95;101627.45;1662266;84;25916;-79
2022/08/07 04:53:29;;;;;;;4.87;2.17;;;;;;;13.45;87.35;101628.27;1666420;81;28370;-78
2022/08/07 04:56:08;;;;;;;2.47;2.25;;;;;;;13.48;87.46;101630.07;1731576;81;26078;-79
2022/08/07 04:58:42;;;;;;;5.62;2.22;;;;;;;13.55;87.90;101632.88;1677900;81;25904;-79
2022/08/07 05:01:20;;;;;;;5.12;2.20;;;;;;;13.61;87.98;101641.58;1726109;81;26605;-79
2022/08/07 05:03:56;;;;;;;5.92;2.45;;;;;;;13.68;88.15;101639.34;1733008;81;25903;-79
2022/08/07 05:06:44;;;;;;;5.00;2.50;;;;;;;13.77;88.51;101642.80;1735146;81;28294;-79
2022/08/07 05:09:45;;;;;;;4.90;2.70;;;;;;;13.78;88.64;101646.64;1691508;81;25955;-79
2022/08/07 05:12:16;;;;;;;8.58;2.90;;;;;;;13.83;88.75;101654.18;1718021;81;25952;-80
2022/08/07 05:14:45;;;;;;;5.92;2.80;;;;;;;13.89;88.95;101652.09;1718659;82;25930;-79
2022/08/07 05:17:16;;;;;;;5.62;2.77;;;;;;;13.95;88.82;101656.75;1736398;81;25793;-80
2022/08/07 05:19:50;;;;;;;4.35;2.67;;;;;;;14.02;89.12;101651.47;1719245;81;28260;-79
2022/08/07 05:22:19;;;;;;;6.75;3.33;;;;;;;14.09;89.17;101649.72;1725904;81;25745;-79
2022/08/07 05:24:50;;;;;;;8.08;2.75;;;;;;;14.17;89.38;101651.82;1727864;81;25559;-78
2022/08/07 05:27:18;;;;;;;7.05;3.67;;;;;;;14.24;89.36;101651.92;1723092;81;26550;-79
2022/08/07 05:29:46;;;;;;;9.03;3.27;;;;;;;14.32;89.23;101650.01;1726782;81;25842;-79
2022/08/07 05:32:16;;;;;;;7.05;2.85;;;;;;;14.39;89.31;101660.34;1729856;81;27680;-78
2022/08/07 05:34:43;;;;;;;5.87;2.90;;;;;;;14.46;89.21;101660.44;1730807;81;25931;-80
2022/08/07 05:37:11;;;;;;;5.25;2.90;;;;;;;14.54;89.28;101657.67;1736921;81;25871;-79
2022/08/07 05:39:40;;;;;;;5.35;2.72;;;;;;;14.63;89.18;101656.53;1729197;81;26851;-79
2022/08/07 05:42:07;;;;;;;8.58;3.30;;;;;;;14.74;89.41;101657.91;1735195;81;25853;-78
2022/08/07 05:44:38;;;;;;;8.43;3.05;;;;;;;14.85;89.22;101654.73;1736348;80;27461;-79
2022/08/07 05:47:07;;;;;;;5.12;2.87;;;;;;;14.97;89.09;101664.84;1743576;80;25772;-79
2022/08/07 05:49:35;;;;;;;8.60;3.30;;;;;;;15.08;89.13;101668.41;1737974;80;25780;-77
2022/08/07 05:52:04;;;;;;;7.95;3.05;;;;;;;15.19;89.00;101666.56;1734991;80;25956;-80
2022/08/07 05:54:31;;;;;;;5.92;2.92;;;;;;;15.31;89.00;101662.87;1722475;81;26445;-80
2022/08/07 05:57:01;;;;;;;13.48;3.02;;;;;;;15.41;88.55;101660.17;1718932;81;27647;-79
2022/08/07 05:59:34;;;;;;;8.45;2.55;;;;;;;15.54;88.53;101661.34;1721122;81;25848;-79
2022/08/07 06:02:04;;;;;;;5.65;2.30;;;;;;;15.64;88.40;101661.34;1725983;81;26571;-80
2022/08/07 06:04:34;;;;;;;5.72;1.95;;;;;;;15.77;88.42;101660.11;1752660;81;26599;-80
2022/08/07 06:07:04;;;;;;;3.65;2.50;;;;;;;15.95;88.10;101667.20;1724254;81;25928;-79
2022/08/07 06:09:32;;;;;;;5.63;2.37;;;;;;;16.16;88.68;101664.48;1739271;80;27483;-80
2022/08/07 06:11:59;;;;;;;6.47;2.90;;;;;;;16.29;87.26;101656.13;1747641;80;26267;-79
2022/08/07 06:14:26;;;;;;;4.92;2.20;;;;;;;16.39;86.30;101661.50;1748563;81;25722;-80
2022/08/07 06:16:55;;;;;;;4.70;1.80;;;;;;;16.53;86.47;101661.91;1738723;81;25885;-81
2022/08/07 06:19:24;;;;;;;5.35;1.98;;;;;;;16.66;85.53;101658.44;1739332;81;25806;-80
2022/08/07 06:21:51;;;;;;;6.50;1.77;;;;;;;16.75;84.74;101655.89;1743600;80;27455;-79
2022/08/07 06:24:17;;;;;;;3.70;1.70;;;;;;;16.81;84.22;101659.98;1743647;80;26427;-80
2022/08/07 06:26:44;;;;;;;5.53;1.75;;;;;;;16.86;83.26;101659.38;1726182;81;25784;-79
2022/08/07 06:29:11;;;;;;;4.37;1.60;;;;;;;16.96;84.40;101655.77;1718783;81;25870;-79
2022/08/07 06:31:37;;;;;;;5.17;1.47;;;;;;;17.08;83.36;101659.58;1725799;82;25946;-81
2022/08/07 06:34:04;;;;;;;4.35;1.75;;;;;;;17.17;82.80;101662.94;1733341;81;27499;-81
2022/08/07 06:36:30;;;;;;;5.83;1.30;;;;;;;17.20;81.47;101657.94;1715475;82;25807;-81
2022/08/07 06:38:57;;;;;;;5.10;1.37;;;;;;;17.23;81.04;101660.76;1724459;81;25343;-80
2022/08/07 06:41:38;;;;;;;3.65;1.60;;;;;;;17.31;80.69;101657.86;1720021;82;25841;-80
2022/08/07 06:44:05;;;;;;;6.40;1.17;;;;;;;17.34;79.54;101660.16;1723072;81;25853;-81
2022/08/07 06:46:33;;;;;;;5.75;1.07;;;;;;;17.38;79.29;101658.71;1751307;80;28475;-81
2022/08/07 06:49:00;;;;;;;3.58;1.12;;;;;;;17.48;79.24;101664.05;1746561;81;25867;-80
2022/08/07 06:51:30;;;;;;;3.98;1.02;;;;;;;17.54;78.04;101663.76;1714752;81;25856;-80
2022/08/07 06:54:02;;;;;;;2.12;0.93;;;;;;;17.65;77.94;101672.64;1746548;81;25836;-80
2022/08/07 06:56:42;;;;;;;3.22;0.90;;;;;;;17.68;76.91;101669.52;1731190;81;25870;-81
2022/08/07 06:59:15;;;;;;;4.97;1.05;;;;;;;17.71;75.77;101673.16;1735579;81;27539;-81
2022/08/07 07:01:45;;;;;;;3.02;0.85;;;;;;;17.76;75.27;101674.73;1737971;81;25974;-80
2022/08/07 07:04:12;;;;;;;4.05;0.80;;;;;;;17.85;75.43;101671.30;1735528;81;25867;-80
2022/08/07 07:06:41;;;;;;;4.37;1.00;;;;;;;17.97;74.64;101679.95;1736104;81;26449;-80
2022/08/07 07:09:29;;;;;;;5.58;1.12;;;;;;;18.05;73.85;101682.44;1734836;81;26772;-80
2022/08/07 07:12:31;;;;;;;3.10;0.90;;;;;;;18.13;73.89;101682.77;1733823;81;28018;-80
2022/08/07 07:15:24;;;;;;;7.50;1.00;;;;;;;18.29;74.08;101683.67;1735628;81;25777;-79
2022/08/07 07:18:13;;;;;;;6.37;0.82;;;;;;;18.36;72.97;101677.20;1750910;81;25639;-78
2022/08/07 07:20:45;;;;;;;2.80;0.70;;;;;;;18.32;72.04;101675.13;1748758;80;25873;-79
2022/08/07 07:23:12;;;;;;;7.20;0.90;;;;;;;18.22;71.55;101682.88;1758703;81;26047;-81
2022/08/07 07:25:41;;;;;;;3.25;0.70;;;;;;;18.27;72.11;101678.47;1749661;81;27445;-80
2022/08/07 07:28:20;;;;;;;2.33;0.78;;;;;;;18.27;71.57;101668.13;1739001;81;25275;-80
2022/08/07 07:30:55;;;;;;;2.85;1.40;;;;;;;18.33;71.78;101672.19;1743494;80;25743;-80
2022/08/07 07:33:23;;;;;;;2.83;0.82;;;;;;;18.43;72.25;101660.37;1760492;80;26449;-80
2022/08/07 07:35:51;;;;;;;3.87;1.20;;;;;;;18.38;70.15;101668.84;1722119;81;25844;-80
2022/08/07 07:38:21;;;;;;;2.05;0.90;;;;;;;18.32;69.59;101661.56;1748926;80;28291;-80
2022/08/07 07:40:49;;;;;;;2.17;0.50;;;;;;;18.33;70.15;101664.05;1723209;81;26016;-80
2022/08/07 07:43:17;;;;;;;1.70;0.60;;;;;;;18.39;68.98;101664.56;1721554;81;25912;-81
2022/08/07 07:45:47;;;;;;;6.65;0.95;;;;;;;18.44;68.92;101658.53;1713286;81;25879;-79
2022/08/07 07:48:19;;;;;;;2.05;0.75;;;;;;;18.51;67.45;101662.59;1728851;81;25940;-82
2022/08/07 07:50:47;;;;;;;2.58;0.80;;;;;;;18.48;67.57;101663.33;1736192;81;28274;-80
2022/08/07 07:53:17;;;;;;;4.17;0.95;;;;;;;18.54;67.29;101661.63;1738187;80;26024;-80
2022/08/07 07:55:44;;;;;;;2.98;0.70;;;;;;;18.60;67.68;101657.25;1740486;80;26397;-79
2022/08/07 07:58:12;;;;;;;6.90;1.10;;;;;;;18.61;66.62;101659.73;1740941;80;25628;-80
2022/08/07 08:00:41;;;;;;;4.30;0.95;;;;;;;18.64;67.52;101665.27;1717001;81;26290;-79
2022/08/07 08:03:12;;;;;;;1.98;0.65;;;;;;;18.69;67.18;101664.92;1736729;80;27414;-80
2022/08/07 08:05:41;;;;;;;2.65;0.82;;;;;;;18.75;64.91;101661.89;1735750;81;25750;-83
2022/08/07 08:08:11;;;;;;;3.08;0.70;;;;;;;18.83;65.61;101660.29;1736076;81;25524;-81
2022/08/07 08:10:39;;;;;;;2.05;1.00;;;;;;;18.91;65.26;101657.33;1717600;81;26592;-80
2022/08/07 08:13:08;;;;;;;1.27;0.90;;;;;;;19.01;65.83;101657.17;1739579;80;26015;-80
2022/08/07 08:15:38;;;;;;;2.55;0.90;;;;;;;19.12;65.48;101657.84;1726679;81;28276;-80
2022/08/07 08:18:10;;;;;;;2.83;0.80;;;;;;;19.26;65.75;101655.91;1743064;80;26454;-80
2022/08/07 08:20:39;;;;;;;3.80;0.88;;;;;;;19.36;65.45;101661.72;1752960;80;25912;-79
2022/08/07 08:28:47;;;;;;;2.58;0.70;;;;;;;19.42;62.75;101663.55;1745507;80;27469;-78
2022/08/07 08:31:18;;;;;;;5.45;0.93;;;;;;;19.31;63.42;101663.41;1746280;81;26524;-80
2022/08/07 08:33:46;;;;;;;1.57;0.60;;;;;;;19.21;63.98;101667.42;1741259;80;25792;-79
2022/08/07 08:36:15;;;;;;;3.65;0.80;;;;;;;19.11;63.66;101667.06;1739855;80;25987;-78
2022/08/07 08:38:44;;;;;;;2.95;0.90;;;;;;;19.13;63.90;101661.41;1719991;81;25911;-78
2022/08/07 08:41:22;;;;;;;2.27;0.68;;;;;;;19.17;63.41;101662.12;1714742;81;27456;-79
2022/08/07 08:44:22;;;;;;;1.52;0.60;;;;;;;19.31;63.50;101668.84;1713604;82;25743;-79
2022/08/07 08:47:00;;;;;;;1.27;0.65;;;;;;;19.45;62.72;101660.93;1716015;81;25827;-79
2022/08/07 08:50:06;;;;;;;6.83;0.90;;;;;;;19.49;62.79;101665.72;1665721;81;26661;-79
2022/08/07 08:52:53;;;;;;;2.55;1.00;;;;;;;19.52;60.98;101663.92;1745533;80;26016;-79
2022/08/07 08:55:37;;;;;;;3.17;0.72;;;;;;;19.55;62.31;101664.83;1753869;81;27879;-79
2022/08/07 08:58:18;;;;;;;2.95;0.53;;;;;;;19.56;61.60;101663.79;1716720;81;25982;-78
2022/08/07 09:00:47;;;;;;;;;;;;;;;19.52;60.53;101661.73;1746438;81;26387;-79
2022/08/07 09:03:30;;;;;;;1.35;0.85;;;;;;;19.57;61.04;101652.37;1727396;81;26189;-79
2022/08/07 09:06:09;;;;;;;2.60;0.90;;;;;;;19.64;61.35;101654.00;1682966;81;43181;-79
2022/08/07 09:08:58;;;;;;;1.17;0.55;;;;;;;19.79;61.90;101651.80;1721206;81;27466;-78
2022/08/07 09:11:46;;;;;;;1.40;0.53;;;;;;;19.79;60.93;101649.08;1721734;81;25913;-79
2022/08/07 09:14:30;;;;;;;1.62;0.65;;;;;;;19.70;59.72;101659.91;1722651;81;26382;-78
2022/08/07 09:17:08;;;;;;;1.40;0.70;;;;;;;19.56;59.65;101656.16;1732776;81;25860;-78
2022/08/07 09:20:02;;;;;;;3.80;0.62;;;;;;;19.49;59.68;101648.05;1744138;81;25777;-77
2022/08/07 09:22:50;;;;;;;2.10;0.80;;;;;;;19.54;59.50;101652.31;1738929;81;27462;-78
2022/08/07 09:25:37;;;;;;;1.77;0.70;;;;;;;19.61;57.75;101646.28;1742379;81;25860;-78
2022/08/07 09:28:07;;;;;;;1.87;0.68;;;;;;;19.72;58.24;101644.73;1733253;81;25905;-78
2022/08/07 09:31:09;;;;;;;1.60;0.93;;;;;;;19.87;58.09;101642.52;1735852;80;26411;-78
2022/08/07 09:34:16;;;;;;;2.98;0.70;;;;;;;19.95;57.89;101648.50;1742157;81;25738;-79
2022/08/07 09:37:02;;;;;;;2.65;0.60;;;;;;;20.04;57.63;101643.61;1731991;81;27489;-78
2022/08/07 09:40:03;;;;;;;1.70;0.62;;;;;;;20.06;56.51;101639.33;1734447;81;25878;-77
2022/08/07 09:43:26;;;;;;;1.98;0.70;;;;;;;19.98;57.25;101641.79;1740300;80;25835;-79
2022/08/07 09:46:29;;;;;;;5.25;0.68;;;;;;;19.92;56.43;101639.45;1736350;81;26473;-79
2022/08/07 09:49:21;;;;;;;1.30;0.50;;;;;;;19.87;56.66;101627.03;1633214;86;25919;-79
2022/08/07 09:52:05;;;;;;;2.47;0.60;;;;;;;19.95;55.86;101633.55;1705840;81;28085;-78
2022/08/07 09:54:45;;;;;;;1.77;0.65;;;;;;;19.97;55.98;101635.52;1740038;80;25846;-79
2022/08/07 09:57:40;;;;;;;2.70;0.85;;;;;;;19.97;55.08;101632.80;1738542;80;25824;-79
2022/08/07 10:00:28;;;;;;;1.62;0.50;;;;;;;20.01;54.81;101626.40;1721312;81;25744;-79
2022/08/07 10:03:14;;;;;;;2.92;0.88;;;;;;;20.06;55.67;101620.30;1722412;82;25886;-79
2022/08/07 10:06:08;;;;;;;1.85;0.62;;;;;;;20.17;55.91;101616.81;1701504;82;27483;-78
2022/08/07 10:09:22;;;;;;;0.70;0.60;;;;;;;20.28;54.96;101607.94;1671304;81;25939;-79
2022/08/07 10:15:22;;;;;;;2.25;0.68;;;;;;;20.47;54.42;101610.44;1751012;77;25798;-78
2022/08/07 10:17:57;;;;;;;1.23;0.53;;;;;;;20.57;53.52;101618.09;1769333;80;25929;-78
2022/08/07 10:20:55;;;;;;;1.30;0.50;;;;;;;20.58;53.53;101606.13;1756910;80;28081;-78
2022/08/07 10:23:44;;;;;;;0.85;0.42;;;;;;;20.64;52.87;101611.48;1761428;80;26516;-78
2022/08/07 10:26:39;;;;;;;1.30;0.50;;;;;;;20.68;53.48;101600.97;1754762;79;25788;-79
2022/08/07 10:29:44;;;;;;;2.08;0.50;;;;;;;20.77;52.93;101599.59;1661053;79;26106;-79
2022/08/07 10:32:25;;;;;;;3.05;0.90;;;;;;;20.88;53.89;101590.66;1730347;81;25772;-79
2022/08/07 10:35:28;;;;;;;;;;;;;;;20.89;52.45;101593.70;1760135;80;28359;-79
2022/08/07 10:38:26;;;;;;;0.85;0.55;;;;;;;20.71;51.09;101595.91;1723407;81;25828;-79
2022/08/07 10:41:17;;;;;;;2.70;0.50;;;;;;;20.59;51.01;101586.83;1743054;81;25768;-79
2022/08/07 10:44:25;;;;;;;3.98;0.60;;;;;;;20.53;51.21;101585.03;1749463;80;26022;-78
2022/08/07 10:47:06;;;;;;;1.32;0.50;;;;;;;20.59;51.59;101579.22;1767552;79;25831;-78
2022/08/07 10:49:36;;;;;;;;;;;;;;;20.74;51.82;101580.45;1749073;79;28266;-80
2022/08/07 10:52:17;;;;;;;0.80;0.50;;;;;;;20.85;51.77;101580.20;1753724;80;25870;-79
2022/08/07 10:55:00;;;;;;;0.42;0.42;;;;;;;20.86;51.38;101582.41;1758555;79;25843;-78
2022/08/07 10:57:53;;;;;;;0.82;0.55;;;;;;;20.88;51.57;101583.01;1754900;80;25831;-78
2022/08/07 11:00:20;;;;;;;1.50;0.60;;;;;;;20.89;51.82;101580.08;1757405;80;25868;-79
2022/08/07 11:03:12;;;;;;;3.50;0.60;;;;;;;20.97;51.97;101576.19;1767852;80;27451;-78
2022/08/07 11:06:18;;;;;;;1.15;0.70;;;;;;;20.96;50.99;101571.26;1759965;80;25818;-80
2022/08/07 11:09:19;;;;;;;1.32;0.70;;;;;;;20.97;50.59;101572.09;1757097;81;25843;-79
2022/08/07 11:12:12;;;;;;;1.47;0.70;;;;;;;21.04;51.18;101572.32;1732568;80;25845;-79
2022/08/07 11:14:54;;;;;;;1.72;0.50;;;;;;;21.13;49.71;101564.65;1748529;80;26684;-79
2022/08/07 11:17:46;;;;;;;2.75;0.45;;;;;;;21.17;49.70;101560.42;1753386;80;27514;-78
2022/08/07 11:20:23;;;;;;;1.57;0.60;;;;;;;21.23;51.93;101567.13;1783938;80;26530;-78
2022/08/07 11:26:11;;;;;;;2.00;0.50;;;;;;;21.44;50.88;101561.12;1727227;77;25867;-79
2022/08/07 11:28:48;;;;;;;1.22;0.60;;;;;;;21.51;49.61;101562.39;1730300;81;25887;-78
2022/08/07 11:31:33;;;;;;;1.72;0.72;;;;;;;21.41;47.92;101564.84;1752742;80;27621;-81
2022/08/07 11:34:16;;;;;;;1.17;0.50;;;;;;;21.32;47.65;101556.17;1729621;81;25775;-82
2022/08/07 11:36:54;;;;;;;2.72;1.00;;;;;;;21.26;48.71;101550.83;1778045;79;25907;-79
2022/08/07 11:39:40;;;;;;;1.98;0.50;;;;;;;21.23;48.32;101552.67;1776371;79;25770;-79
2022/08/07 11:42:17;;;;;;;0.78;0.50;;;;;;;21.29;49.11;101547.64;1770941;75;26807;-79
2022/08/07 11:48:19;;;;;;;0.82;0.50;;;;;;;21.46;49.82;101549.98;1787629;76;25843;-84
2022/08/07 11:51:12;;;;;;;1.42;0.50;;;;;;;21.55;50.31;101542.28;1709360;80;26030;-78
2022/08/07 11:53:53;;;;;;;2.77;1.17;;;;;;;21.66;49.19;101551.85;1765910;79;26644;-77
2022/08/07 11:56:26;;;;;;;;;;;;;;;21.73;49.17;101547.09;1776739;79;25896;-79
2022/08/07 11:59:47;;;;;;;1.72;0.60;;;;;;;21.80;48.62;101538.27;1787050;78;27440;-79
2022/08/07 12:02:16;;;;;;;;;;;;;;;21.91;48.51;101536.10;1794398;76;26950;31
2022/08/07 12:05:20;;;;;;;2.25;0.57;;;;;;;22.10;48.98;101538.14;1793277;78;25808;-87
2022/08/07 12:11:33;;;;;;;2.87;0.60;;;;;;;22.14;46.81;101533.34;1732040;79;25829;-79
2022/08/07 12:14:14;;;;;;;4.45;0.78;;;;;;;22.14;47.52;101539.31;1744903;81;27427;-79
2022/08/07 12:16:43;;;;;;;;;;;;;;;21.95;47.38;101538.64;1727832;81;25945;-78
2022/08/07 12:19:33;;;;;;;1.12;0.70;;;;;;;21.74;47.10;101531.56;1739314;81;25798;-78
2022/08/07 12:22:17;;;;;;;1.98;0.75;;;;;;;21.58;48.28;101533.09;1715229;82;25915;-81